Saint Onge, South Dakota
Current Conditions -  °F | °C
As of 5:55 AM on Saturday 25 Oct 2014 (Local Time) from KSPF Reporting Station
Clear Clear  
Wind Chill: 36°   Ceiling: Unl
Heat Index: 39°   Visibility: 10mi
Dew Point: 30°   Wind: 5mph
Humidity: 70%   Direction: 190°S
Pressure: 30.15"   Gusts: NA
Location:  44.55°N, 103.72°W
Report Text: KSPF 251155Z AUTO 19004KT 10SM CLR 04/M01 A3015 RMK AO2
Loading
Personal Weather Stations






























Interactive Weather Map
Tropical Storm Tracking
New forecast layout! Learn more

10-Day Weather Forecast

Advertisements
Track Severe Weather on mobile